Time;durP1;ratioP1;P1;durP2;ratioP2;P2;SDS_P1;SDS_P2;PMS_P1;PMS_P2;Temp;Humidity;BMP_temperature;BMP_pressure;BME280_temperature;BME280_humidity;BME280_pressure;Samples;Min_cycle;Max_cycle;Signal;HPM_P1;HPM_P2
2020/12/15 00:01:55;;;;;;;117.80;62.60;;;2.60;90.40;;;;;;4935961;28;87092;-77
2020/12/15 00:04:21;;;;;;;118.40;62.73;;;2.60;90.30;;;;;;4937654;28;87816;-78
2020/12/15 00:06:48;;;;;;;123.57;65.77;;;2.60;90.30;;;;;;4937475;28;89513;-77
2020/12/15 00:09:14;;;;;;;121.90;64.43;;;2.60;90.20;;;;;;4935700;28;88210;-78
2020/12/15 00:11:40;;;;;;;120.73;63.27;;;2.70;90.10;;;;;;4937035;28;87633;-78
2020/12/15 00:14:06;;;;;;;119.00;63.00;;;2.60;90.10;;;;;;4936931;28;87274;-78
2020/12/15 00:16:32;;;;;;;111.10;61.77;;;2.60;90.20;;;;;;4937466;28;88101;-78
2020/12/15 00:18:57;;;;;;;116.07;64.23;;;2.60;90.10;;;;;;4935687;28;87376;-77
2020/12/15 00:21:25;;;;;;;112.63;62.47;;;2.60;90.00;;;;;;4953316;28;88217;-77
2020/12/15 00:23:53;;;;;;;124.77;67.50;;;2.70;89.50;;;;;;4929066;28;87480;-77
2020/12/15 00:26:20;;;;;;;125.87;65.23;;;2.80;88.80;;;;;;4924762;28;91338;-78
2020/12/15 00:28:49;;;;;;;122.13;66.40;;;2.90;88.50;;;;;;4899995;28;91055;-76
2020/12/15 00:31:17;;;;;;;122.60;68.40;;;2.80;88.10;;;;;;4901778;28;87368;-77
2020/12/15 00:33:43;;;;;;;128.73;67.87;;;2.80;88.50;;;;;;4917577;28;87723;-77
2020/12/15 00:36:10;;;;;;;127.97;67.60;;;2.70;88.70;;;;;;4916680;28;87833;-78
2020/12/15 00:38:36;;;;;;;124.30;68.83;;;2.70;89.20;;;;;;4923762;28;88109;-78
2020/12/15 00:41:02;;;;;;;127.43;66.80;;;2.60;89.40;;;;;;4923768;28;87392;-78
2020/12/15 00:43:28;;;;;;;130.37;68.33;;;2.60;89.70;;;;;;4917681;28;88086;-78
2020/12/15 00:45:54;;;;;;;130.63;69.90;;;2.50;90.00;;;;;;4932359;28;92186;-78
2020/12/15 00:48:20;;;;;;;127.00;65.70;;;2.50;90.10;;;;;;4932830;28;91962;-77
2020/12/15 00:50:46;;;;;;;127.60;67.33;;;2.40;90.20;;;;;;4950649;28;87448;-77
2020/12/15 00:53:11;;;;;;;123.43;66.33;;;2.50;90.30;;;;;;4935725;28;87793;-78
2020/12/15 00:55:37;;;;;;;129.67;68.93;;;2.50;90.30;;;;;;4908081;28;92034;-77
2020/12/15 00:58:03;;;;;;;120.47;65.53;;;2.50;90.30;;;;;;4916302;28;91171;-77
2020/12/15 01:00:29;;;;;;;123.00;66.43;;;2.50;90.20;;;;;;4923183;28;87752;-77
2020/12/15 01:02:55;;;;;;;124.93;66.77;;;2.60;90.10;;;;;;4918222;28;88288;-78
2020/12/15 01:05:24;;;;;;;114.53;64.73;;;2.60;90.00;;;;;;4936293;28;91383;-77
2020/12/15 01:07:52;;;;;;;109.67;60.27;;;2.70;89.90;;;;;;4935032;28;91271;-77
2020/12/15 01:10:19;;;;;;;116.93;66.57;;;2.70;89.60;;;;;;4935687;28;88620;-78
2020/12/15 01:12:48;;;;;;;119.20;62.33;;;2.70;89.70;;;;;;4937501;28;87284;-77
2020/12/15 01:15:14;;;;;;;113.50;63.90;;;2.70;89.80;;;;;;4936820;28;88204;-78
2020/12/15 01:17:41;;;;;;;103.17;59.60;;;2.60;90.10;;;;;;4934570;28;89344;-77
2020/12/15 01:20:08;;;;;;;105.80;58.43;;;2.60;90.10;;;;;;4921631;28;87385;-78
2020/12/15 01:22:36;;;;;;;111.00;60.77;;;2.70;90.00;;;;;;4930788;28;88201;-78
2020/12/15 01:25:07;;;;;;;108.17;60.43;;;2.80;89.70;;;;;;4937701;28;91931;-77
2020/12/15 01:27:41;;;;;;;117.77;62.47;;;2.80;89.40;;;;;;4915018;28;91607;-78
2020/12/15 01:30:17;;;;;;;114.77;62.50;;;2.80;89.30;;;;;;4925340;28;87488;-76
2020/12/15 01:33:01;;;;;;;114.20;63.20;;;2.80;89.50;;;;;;4935057;28;87683;-78
2020/12/15 01:35:46;;;;;;;116.70;62.63;;;2.70;89.60;;;;;;4935520;28;88323;-78
2020/12/15 01:38:14;;;;;;;117.73;62.63;;;2.70;89.70;;;;;;4954343;28;89499;-78
2020/12/15 01:40:48;;;;;;;109.70;59.90;;;2.60;90.30;;;;;;4938424;28;87543;-78
2020/12/15 01:43:14;;;;;;;118.47;62.27;;;2.50;90.50;;;;;;4938446;28;88458;-78
2020/12/15 01:45:40;;;;;;;109.60;61.20;;;2.50;90.60;;;;;;4938607;28;91511;-78
2020/12/15 01:48:06;;;;;;;109.00;60.03;;;2.50;90.70;;;;;;4935481;28;91426;-78
2020/12/15 01:50:42;;;;;;;112.57;61.07;;;2.40;90.70;;;;;;4919715;28;87394;-78
2020/12/15 01:53:12;;;;;;;107.40;60.80;;;2.40;90.70;;;;;;4919551;28;88248;-77
2020/12/15 01:55:40;;;;;;;112.00;62.53;;;2.40;90.70;;;;;;4904100;28;91841;-77
2020/12/15 01:58:10;;;;;;;107.17;59.87;;;2.40;90.80;;;;;;4919157;28;91212;-78
2020/12/15 02:00:43;;;;;;;108.47;59.17;;;2.30;90.90;;;;;;4918858;28;88405;-77
2020/12/15 02:03:14;;;;;;;111.65;62.72;;;2.30;91.00;;;;;;4920577;28;87321;-78
2020/12/15 02:06:00;;;;;;;107.33;60.57;;;2.30;91.10;;;;;;4914011;28;88817;-78
2020/12/15 02:08:31;;;;;;;112.17;61.90;;;2.30;91.00;;;;;;4926919;28;91221;-78
2020/12/15 02:10:59;;;;;;;111.37;60.10;;;2.30;90.90;;;;;;4924112;28;87429;-78
2020/12/15 02:13:30;;;;;;;106.67;57.80;;;2.30;91.00;;;;;;4927095;28;87434;-77
2020/12/15 02:16:00;;;;;;;111.77;59.80;;;2.30;90.90;;;;;;4918754;28;88159;-78
2020/12/15 02:18:27;;;;;;;109.80;60.63;;;2.40;90.80;;;;;;4948751;28;90112;-77
2020/12/15 02:20:58;;;;;;;;;;;2.40;90.70;;;;;;4937895;28;87520;-77
2020/12/15 02:23:38;;;;;;;102.60;58.10;;;2.40;90.60;;;;;;4914315;28;87068;-78
2020/12/15 02:26:17;;;;;;;108.07;61.77;;;2.40;90.50;;;;;;4918303;28;91612;-77
2020/12/15 02:28:43;;;;;;;113.50;60.47;;;2.40;90.50;;;;;;4918984;28;92533;-77
2020/12/15 02:31:09;;;;;;;114.80;63.70;;;2.50;90.50;;;;;;4916996;28;87462;-77
2020/12/15 02:33:40;;;;;;;111.77;58.73;;;2.50;90.40;;;;;;4920023;28;87551;-78
2020/12/15 02:36:07;;;;;;;104.80;59.93;;;2.40;90.40;;;;;;4920032;28;88530;-77
2020/12/15 02:38:39;;;;;;;108.47;61.75;;;2.40;90.50;;;;;;4920060;28;91153;-77
2020/12/15 02:41:05;;;;;;;110.20;60.87;;;2.30;90.50;;;;;;4919115;28;87455;-76
2020/12/15 02:43:42;;;;;;;108.03;60.37;;;2.30;90.50;;;;;;4924817;28;88589;-77
2020/12/15 02:46:09;;;;;;;109.33;61.40;;;2.30;90.50;;;;;;4928404;28;90493;-78
2020/12/15 02:48:35;;;;;;;105.47;58.67;;;2.30;90.90;;;;;;4936011;28;87711;-77
2020/12/15 02:51:02;;;;;;;115.53;62.70;;;2.20;90.80;;;;;;4917823;28;88443;-77
2020/12/15 02:53:41;;;;;;;105.70;60.23;;;2.20;90.90;;;;;;4918932;28;87103;-78
2020/12/15 02:56:08;;;;;;;114.73;65.80;;;2.20;91.00;;;;;;4918360;28;89401;-78
2020/12/15 02:58:42;;;;;;;110.13;61.67;;;2.20;91.10;;;;;;4928203;28;90834;-78
2020/12/15 03:01:12;;;;;;;114.97;63.43;;;2.10;91.00;;;;;;4923872;28;87123;-77
2020/12/15 03:03:38;;;;;;;106.30;60.77;;;2.10;91.10;;;;;;4937018;28;87411;-78
2020/12/15 03:06:17;;;;;;;105.40;58.63;;;2.10;91.20;;;;;;4936099;28;92073;-77
2020/12/15 03:08:45;;;;;;;102.80;60.77;;;2.10;91.10;;;;;;4906680;28;89734;-78
2020/12/15 03:11:11;;;;;;;107.93;59.87;;;2.10;91.00;;;;;;4916026;28;87397;-78
2020/12/15 03:13:39;;;;;;;101.80;56.60;;;2.20;90.90;;;;;;4916648;28;87248;-77
2020/12/15 03:16:06;;;;;;;104.53;57.00;;;2.30;90.80;;;;;;4915576;28;90937;-77
2020/12/15 03:18:31;;;;;;;102.37;56.70;;;2.30;90.70;;;;;;4930199;28;91999;-77
2020/12/15 03:21:04;;;;;;;99.20;56.97;;;2.40;90.50;;;;;;4935360;28;87409;-78
2020/12/15 03:23:30;;;;;;;100.63;57.87;;;2.40;90.30;;;;;;4918169;28;87949;-77
2020/12/15 03:25:56;;;;;;;93.13;54.13;;;2.50;90.10;;;;;;4916181;28;91818;-78
2020/12/15 03:28:22;;;;;;;100.60;57.80;;;2.50;90.00;;;;;;4917895;28;91228;-77
2020/12/15 03:30:52;;;;;;;91.53;53.20;;;2.50;89.90;;;;;;4917666;28;87469;-77
2020/12/15 03:33:18;;;;;;;98.93;55.90;;;2.50;89.80;;;;;;4916782;28;88463;-78
2020/12/15 03:35:45;;;;;;;95.70;53.17;;;2.40;90.00;;;;;;4923243;28;90451;-78
2020/12/15 03:38:15;;;;;;;98.67;56.03;;;2.40;90.10;;;;;;4934770;28;91683;-77
2020/12/15 03:40:53;;;;;;;98.63;54.10;;;2.40;90.10;;;;;;4936545;28;88067;-77
2020/12/15 03:43:45;;;;;;;100.65;56.03;;;2.40;90.30;;;;;;4924094;28;88900;-78
2020/12/15 03:46:31;;;;;;;89.23;51.23;;;2.40;90.30;;;;;;4932948;28;87230;-78
2020/12/15 03:49:00;;;;;;;98.37;52.93;;;2.40;90.30;;;;;;4900257;28;91782;-78
2020/12/15 03:51:30;;;;;;;97.47;56.30;;;2.30;90.40;;;;;;4918326;28;87386;-78
2020/12/15 03:54:32;;;;;;;95.07;52.23;;;2.30;90.30;;;;;;4858910;28;87200;-78
2020/12/15 03:57:16;;;;;;;88.40;52.40;;;2.30;90.50;;;;;;4914428;28;86990;-78
2020/12/15 04:00:02;;;;;;;90.53;51.10;;;2.30;90.50;;;;;;4919845;28;91573;-77
2020/12/15 04:02:38;;;;;;;86.60;51.17;;;2.30;90.40;;;;;;4947906;28;87651;-78
2020/12/15 04:05:12;;;;;;;82.47;49.37;;;2.30;90.30;;;;;;4920774;28;88316;-77
2020/12/15 04:07:43;;;;;;;89.80;52.77;;;2.40;90.20;;;;;;4936275;28;91884;-77
2020/12/15 04:10:10;;;;;;;85.60;50.43;;;2.40;90.10;;;;;;4907085;28;90348;-78
2020/12/15 04:12:41;;;;;;;96.65;53.83;;;2.40;90.20;;;;;;4917907;28;87723;-77
2020/12/15 04:15:07;;;;;;;89.90;50.90;;;2.40;90.10;;;;;;4916881;28;87284;-77
2020/12/15 04:17:36;;;;;;;87.80;52.47;;;2.40;89.60;;;;;;4923167;28;91599;-77
2020/12/15 04:20:05;;;;;;;88.10;53.23;;;2.40;89.60;;;;;;4935126;28;90420;-77
2020/12/15 04:22:32;;;;;;;84.67;52.40;;;2.40;89.90;;;;;;4917807;28;87049;-78
2020/12/15 04:25:02;;;;;;;85.03;51.40;;;2.40;89.80;;;;;;4933884;28;88270;-78
2020/12/15 04:27:33;;;;;;;85.20;51.53;;;2.30;89.50;;;;;;4931509;28;88169;-78
2020/12/15 04:29:59;;;;;;;90.73;52.07;;;2.30;90.10;;;;;;4918001;28;90002;-78
2020/12/15 04:32:26;;;;;;;86.93;50.77;;;2.20;90.40;;;;;;4934661;28;88326;-77
2020/12/15 04:35:07;;;;;;;90.50;51.70;;;2.20;90.30;;;;;;4934985;28;87086;-77
2020/12/15 04:37:33;;;;;;;89.00;52.00;;;2.20;90.40;;;;;;4950783;28;89915;-78
2020/12/15 04:40:03;;;;;;;95.87;57.03;;;2.10;90.70;;;;;;4933868;28;92086;-77
2020/12/15 04:42:38;;;;;;;87.30;50.07;;;2.10;90.90;;;;;;4935352;28;87178;-78
2020/12/15 04:45:04;;;;;;;91.33;52.00;;;2.10;90.80;;;;;;4934247;28;88032;-77
2020/12/15 04:47:43;;;;;;;86.45;50.72;;;2.10;90.70;;;;;;4934733;28;91319;-77
2020/12/15 04:50:15;;;;;;;89.20;50.37;;;2.20;90.60;;;;;;4934527;28;91481;-77
2020/12/15 04:53:09;;;;;;;84.53;51.17;;;2.20;90.40;;;;;;4935586;28;87133;-77
2020/12/15 04:56:16;;;;;;;87.67;48.20;;;2.20;90.30;;;;;;4939327;28;87479;-77
2020/12/15 04:58:47;;;;;;;81.10;46.03;;;2.30;90.20;;;;;;4938727;28;91113;-77
2020/12/15 05:01:18;;;;;;;80.93;49.53;;;2.20;90.30;;;;;;4937660;28;92388;-77
2020/12/15 05:04:05;;;;;;;84.60;49.83;;;2.20;90.40;;;;;;4938179;28;87184;-78
2020/12/15 05:06:38;;;;;;;82.03;48.63;;;2.20;90.20;;;;;;4939713;28;88608;-78
2020/12/15 05:09:04;;;;;;;80.77;46.47;;;2.30;90.20;;;;;;4937315;28;91647;-77
2020/12/15 05:11:30;;;;;;;84.00;48.27;;;2.20;90.50;;;;;;4955644;28;91164;-77
2020/12/15 05:14:07;;;;;;;88.07;47.63;;;2.20;90.50;;;;;;4938542;28;87629;-76
2020/12/15 05:16:37;;;;;;;77.37;47.17;;;2.20;90.40;;;;;;4940890;28;86811;-77
2020/12/15 05:19:21;;;;;;;87.17;50.87;;;2.10;90.40;;;;;;4927352;28;87184;-77
2020/12/15 05:22:00;;;;;;;78.50;48.03;;;2.10;90.60;;;;;;4938831;28;90796;-77
2020/12/15 05:24:35;;;;;;;84.00;47.80;;;2.10;90.70;;;;;;4938844;28;88187;-77
2020/12/15 05:27:02;;;;;;;90.70;52.07;;;2.10;90.60;;;;;;4905028;28;88054;-77
2020/12/15 05:29:36;;;;;;;83.97;45.93;;;2.00;90.70;;;;;;4917852;28;90732;-78
2020/12/15 05:32:25;;;;;;;77.17;45.67;;;2.00;90.80;;;;;;4920218;28;90728;-77
2020/12/15 05:35:15;;;;;;;73.80;45.43;;;2.00;90.80;;;;;;4921000;28;87606;-78
2020/12/15 05:38:05;;;;;;;75.97;42.00;;;2.00;90.80;;;;;;4911405;28;87532;-76
2020/12/15 05:41:12;;;;;;;77.13;42.93;;;1.90;91.10;;;;;;4906724;28;90732;-78
2020/12/15 05:43:49;;;;;;;67.77;38.70;;;1.90;91.50;;;;;;4919949;28;91755;-77
2020/12/15 05:46:19;;;;;;;62.10;36.90;;;1.80;91.70;;;;;;4922151;28;87021;-78
2020/12/15 05:48:46;;;;;;;68.37;39.43;;;1.80;91.90;;;;;;4935082;28;88090;-77
2020/12/15 05:51:12;;;;;;;60.07;35.37;;;1.80;92.10;;;;;;4920518;28;92265;-77
2020/12/15 05:53:38;;;;;;;63.17;36.43;;;1.70;92.20;;;;;;4929572;28;88870;-77
2020/12/15 05:56:05;;;;;;;62.23;35.23;;;1.70;92.30;;;;;;4918246;28;87381;-77
2020/12/15 05:58:31;;;;;;;57.13;34.40;;;1.80;92.20;;;;;;4918017;28;88727;-77
2020/12/15 06:00:57;;;;;;;59.17;34.70;;;1.80;92.10;;;;;;4917564;28;88813;-77
2020/12/15 06:03:23;;;;;;;56.23;34.30;;;1.80;92.00;;;;;;4935054;28;90625;-76
2020/12/15 06:05:53;;;;;;;57.77;33.70;;;1.90;92.00;;;;;;4917106;28;87065;-77
2020/12/15 06:08:21;;;;;;;53.73;32.57;;;1.80;92.10;;;;;;4935319;28;87890;-77
2020/12/15 06:10:52;;;;;;;54.57;32.93;;;1.80;92.10;;;;;;4922623;28;88627;-77
2020/12/15 06:13:18;;;;;;;54.83;32.08;;;1.90;92.10;;;;;;4941816;28;91595;-77
2020/12/15 06:15:44;;;;;;;58.57;35.23;;;1.90;91.90;;;;;;4940478;28;88084;-77
2020/12/15 06:18:11;;;;;;;57.93;33.47;;;1.90;91.80;;;;;;4931087;28;87188;-78
2020/12/15 06:20:37;;;;;;;55.93;33.17;;;1.90;91.80;;;;;;4937798;28;91132;-78
2020/12/15 06:23:10;;;;;;;51.33;31.33;;;1.90;91.70;;;;;;4937435;28;90893;-79
2020/12/15 06:25:37;;;;;;;61.53;35.97;;;1.90;91.80;;;;;;4938275;28;87440;-76
2020/12/15 06:28:04;;;;;;;59.40;34.23;;;1.90;91.90;;;;;;4925368;28;87471;-77
2020/12/15 06:30:31;;;;;;;52.07;31.57;;;2.00;91.80;;;;;;4918148;28;88258;-77
2020/12/15 06:33:12;;;;;;;56.90;33.47;;;1.90;91.90;;;;;;4918154;28;91910;-77
2020/12/15 06:35:39;;;;;;;53.63;31.97;;;1.90;92.10;;;;;;4919607;28;87541;-77
2020/12/15 06:38:15;;;;;;;50.77;30.70;;;1.80;92.20;;;;;;4917593;28;88309;-78
2020/12/15 06:40:43;;;;;;;46.53;28.27;;;1.90;92.20;;;;;;4918155;28;89919;-77
2020/12/15 06:43:09;;;;;;;47.73;29.10;;;1.80;92.30;;;;;;4917786;28;92990;-77
2020/12/15 06:45:35;;;;;;;43.27;26.33;;;1.80;92.30;;;;;;4902437;28;87320;-77
2020/12/15 06:48:03;;;;;;;41.00;25.60;;;1.80;92.40;;;;;;4920604;28;88503;-77
2020/12/15 06:50:42;;;;;;;37.73;24.53;;;1.80;92.30;;;;;;4937999;28;91237;-77
2020/12/15 06:53:13;;;;;;;41.27;25.30;;;1.80;92.40;;;;;;4908599;28;89097;-77
2020/12/15 06:55:39;;;;;;;39.47;24.50;;;1.80;92.40;;;;;;4949358;28;87062;-77
2020/12/15 06:58:05;;;;;;;34.07;22.43;;;1.80;92.30;;;;;;4938857;28;86507;-76
2020/12/15 07:00:39;;;;;;;40.37;24.80;;;1.80;92.20;;;;;;4939915;28;88558;-77
2020/12/15 07:03:09;;;;;;;40.93;24.27;;;1.90;92.00;;;;;;4935880;28;87998;-77
2020/12/15 07:05:36;;;;;;;34.53;22.63;;;1.90;91.90;;;;;;4952906;28;87993;-77
2020/12/15 07:08:11;;;;;;;41.73;24.10;;;1.90;92.00;;;;;;4931207;28;88146;-76
2020/12/15 07:10:43;;;;;;;36.87;23.23;;;1.90;91.90;;;;;;4921398;28;88977;-77
2020/12/15 07:13:13;;;;;;;39.10;22.60;;;2.00;91.70;;;;;;4913788;28;89963;-76
2020/12/15 07:15:39;;;;;;;35.97;20.83;;;2.00;91.80;;;;;;4935337;28;88054;-77
2020/12/15 07:18:05;;;;;;;40.10;22.37;;;1.90;91.90;;;;;;4929218;28;87144;-77
2020/12/15 07:20:32;;;;;;;35.57;22.13;;;2.00;91.90;;;;;;4922111;28;91448;-77
2020/12/15 07:22:58;;;;;;;35.33;22.33;;;2.00;91.70;;;;;;4930756;28;91609;-77
2020/12/15 07:25:24;;;;;;;37.47;23.43;;;2.10;91.60;;;;;;4939235;28;87114;-77
2020/12/15 07:27:50;;;;;;;33.80;21.47;;;2.10;91.50;;;;;;4938126;28;87545;-77
2020/12/15 07:30:21;;;;;;;32.70;20.80;;;2.20;91.30;;;;;;4937636;28;90014;-78
2020/12/15 07:32:48;;;;;;;36.43;20.97;;;2.30;91.20;;;;;;4934170;28;91870;-78
2020/12/15 07:35:19;;;;;;;40.33;22.33;;;2.40;90.90;;;;;;4938366;28;88331;-77
2020/12/15 07:37:47;;;;;;;37.53;22.15;;;2.50;90.60;;;;;;4930367;28;87006;-77
2020/12/15 07:40:14;;;;;;;39.30;21.97;;;2.60;90.30;;;;;;4936606;28;91696;-78
2020/12/15 07:42:40;;;;;;;30.67;20.27;;;2.60;90.30;;;;;;4937034;28;89960;-78
2020/12/15 07:45:10;;;;;;;34.77;20.90;;;2.70;90.20;;;;;;4936370;28;87300;-78
2020/12/15 07:47:41;;;;;;;36.37;20.57;;;2.80;89.50;;;;;;4939209;28;86619;-77
2020/12/15 07:50:08;;;;;;;36.73;21.03;;;3.00;88.60;;;;;;4917999;28;88869;-77
2020/12/15 07:52:39;;;;;;;33.43;19.77;;;3.30;87.30;;;;;;4917935;28;90770;-78
2020/12/15 07:55:15;;;;;;;33.63;19.47;;;3.50;86.20;;;;;;4917175;28;88457;-78
2020/12/15 07:57:42;;;;;;;35.23;19.33;;;3.90;84.50;;;;;;4938079;28;88001;-78
2020/12/15 08:00:11;;;;;;;33.03;21.07;;;4.40;82.30;;;;;;4922426;28;87794;-78
2020/12/15 08:02:41;;;;;;;34.10;20.00;;;4.80;79.50;;;;;;4945333;28;91153;-78
2020/12/15 08:05:09;;;;;;;40.17;20.73;;;5.20;77.60;;;;;;4944885;28;87549;-79
2020/12/15 08:07:40;;;;;;;32.43;19.10;;;5.60;75.60;;;;;;4928034;28;88043;-79
2020/12/15 08:10:06;;;;;;;33.93;21.47;;;5.80;74.60;;;;;;4931630;28;88585;-80
2020/12/15 08:12:33;;;;;;;37.53;21.50;;;5.90;73.50;;;;;;4935508;28;87906;-79
2020/12/15 08:15:00;;;;;;;32.33;21.07;;;5.90;73.10;;;;;;4937892;28;87833;-79
2020/12/15 08:17:29;;;;;;;30.60;19.13;;;5.90;73.40;;;;;;4924161;28;87164;-79
2020/12/15 08:20:02;;;;;;;32.03;20.47;;;6.00;73.00;;;;;;4944276;28;92288;-76
2020/12/15 08:22:28;;;;;;;32.07;19.63;;;6.00;72.70;;;;;;4930116;28;89272;-80
2020/12/15 08:24:56;;;;;;;30.17;19.70;;;5.80;72.80;;;;;;4933703;28;87526;-79
2020/12/15 08:27:26;;;;;;;32.20;19.47;;;5.70;73.70;;;;;;4929432;28;87146;-79
2020/12/15 08:29:52;;;;;;;31.37;20.23;;;5.70;74.20;;;;;;4930861;28;89336;-79
2020/12/15 08:32:30;;;;;;;35.03;20.83;;;5.80;74.30;;;;;;4933715;28;90981;-79
2020/12/15 08:35:04;;;;;;;33.27;20.53;;;5.90;73.00;;;;;;4933057;28;87051;-79
2020/12/15 08:37:32;;;;;;;35.53;21.33;;;6.10;73.10;;;;;;4937569;28;86476;-79
2020/12/15 08:39:58;;;;;;;33.63;20.87;;;6.20;72.30;;;;;;4928217;28;91568;-79
2020/12/15 08:42:25;;;;;;;33.60;22.07;;;6.40;72.30;;;;;;4937501;28;91766;-79
2020/12/15 08:44:51;;;;;;;35.10;23.37;;;6.60;71.40;;;;;;4930249;28;88495;-79
2020/12/15 08:47:18;;;;;;;32.13;20.27;;;6.90;70.30;;;;;;4932607;28;87102;-79
2020/12/15 08:49:45;;;;;;;35.53;21.43;;;7.10;70.20;;;;;;4932154;28;87146;-78
2020/12/15 08:52:21;;;;;;;30.93;19.20;;;7.40;68.10;;;;;;4938271;28;88021;-79
2020/12/15 08:54:47;;;;;;;29.30;19.33;;;7.60;67.70;;;;;;4950606;28;87180;-79
2020/12/15 08:57:17;;;;;;;29.53;18.37;;;7.80;67.20;;;;;;4941106;28;87906;-79
2020/12/15 08:59:43;;;;;;;24.37;17.73;;;8.00;66.20;;;;;;4932064;28;91722;-79
2020/12/15 09:02:12;;;;;;;26.10;16.95;;;8.10;65.80;;;;;;4934082;28;91387;-79
2020/12/15 09:04:39;;;;;;;31.30;18.53;;;8.30;64.80;;;;;;4939381;28;87136;-79
2020/12/15 09:07:14;;;;;;;27.50;17.03;;;8.30;64.50;;;;;;4935364;28;88034;-78
2020/12/15 09:09:40;;;;;;;21.57;14.57;;;8.20;64.70;;;;;;4920368;28;91610;-78
2020/12/15 09:12:06;;;;;;;20.90;15.20;;;8.10;65.90;;;;;;4920596;28;92164;-78
2020/12/15 09:14:32;;;;;;;23.73;15.33;;;8.00;65.80;;;;;;4937017;28;87327;-77
2020/12/15 09:16:58;;;;;;;22.60;14.50;;;7.80;66.10;;;;;;4920151;28;87232;-77
2020/12/15 09:19:26;;;;;;;20.53;13.73;;;7.70;66.60;;;;;;4935714;28;87549;-78
2020/12/15 09:22:06;;;;;;;19.98;14.00;;;7.70;66.80;;;;;;4934260;28;88363;-79
2020/12/15 09:24:34;;;;;;;23.13;14.30;;;7.90;66.20;;;;;;4940190;28;87428;-79
2020/12/15 09:27:00;;;;;;;21.00;13.97;;;8.20;65.00;;;;;;4937687;28;87096;-77
2020/12/15 09:29:27;;;;;;;18.70;13.77;;;8.20;64.40;;;;;;4937223;28;88541;-78
2020/12/15 09:31:55;;;;;;;19.73;14.90;;;8.20;64.80;;;;;;4943558;28;87433;-77
2020/12/15 09:34:22;;;;;;;22.57;15.57;;;8.20;65.40;;;;;;4933144;28;87846;-78
2020/12/15 09:36:56;;;;;;;22.10;14.33;;;8.20;64.90;;;;;;4926146;28;88435;-78
2020/12/15 09:39:24;;;;;;;20.63;13.50;;;8.20;65.10;;;;;;4927988;28;90881;-77
2020/12/15 09:41:50;;;;;;;21.70;15.13;;;8.30;64.80;;;;;;4931268;28;91023;-77
2020/12/15 09:44:16;;;;;;;17.90;14.23;;;8.30;64.90;;;;;;4945909;28;88237;-78
2020/12/15 09:46:42;;;;;;;23.00;15.30;;;8.20;64.70;;;;;;4924819;28;87140;-78
2020/12/15 09:49:07;;;;;;;20.37;14.80;;;8.20;64.90;;;;;;4924157;28;91720;-78
2020/12/15 09:51:33;;;;;;;22.73;15.70;;;8.10;65.40;;;;;;4938318;28;91031;-78
2020/12/15 09:53:59;;;;;;;27.33;19.10;;;8.10;65.60;;;;;;4935930;28;88152;-77
2020/12/15 09:56:26;;;;;;;28.43;18.90;;;8.10;65.80;;;;;;4935549;28;87956;-78
2020/12/15 09:58:52;;;;;;;27.23;15.93;;;8.10;65.20;;;;;;4931222;28;92761;-77
2020/12/15 10:01:18;;;;;;;22.40;16.33;;;8.00;66.10;;;;;;4937276;28;93731;-77
2020/12/15 10:03:44;;;;;;;27.57;18.70;;;7.90;66.50;;;;;;4938995;28;86880;-77
2020/12/15 10:06:14;;;;;;;29.57;20.07;;;7.70;67.00;;;;;;4943979;28;88134;-77
2020/12/15 10:08:39;;;;;;;34.73;18.23;;;7.60;67.50;;;;;;4935360;28;89138;-77
2020/12/15 10:11:05;;;;;;;27.70;19.27;;;7.50;67.90;;;;;;4935338;28;87556;-77
2020/12/15 10:13:31;;;;;;;30.57;20.30;;;7.50;67.90;;;;;;4934614;28;87193;-77
2020/12/15 10:15:57;;;;;;;25.50;16.93;;;7.60;68.50;;;;;;4937338;28;87950;-78
2020/12/15 10:18:23;;;;;;;43.97;28.17;;;7.60;68.00;;;;;;4937981;28;89541;-80
2020/12/15 10:20:49;;;;;;;30.57;22.33;;;7.70;67.60;;;;;;4922898;28;91179;-80
2020/12/15 10:23:15;;;;;;;40.07;28.97;;;7.80;67.80;;;;;;4935643;28;88226;-78
2020/12/15 10:25:42;;;;;;;33.97;22.87;;;7.90;67.10;;;;;;4937538;28;87188;-78
2020/12/15 10:28:09;;;;;;;26.13;18.30;;;8.00;66.80;;;;;;4917128;28;90167;-78
2020/12/15 10:30:35;;;;;;;26.07;17.60;;;7.90;66.80;;;;;;4930794;28;88444;-78
2020/12/15 10:33:02;;;;;;;25.93;19.10;;;7.90;67.10;;;;;;4932457;28;87526;-78
2020/12/15 10:35:28;;;;;;;26.30;17.53;;;7.80;67.00;;;;;;4930511;28;88799;-79
2020/12/15 10:37:53;;;;;;;24.57;17.83;;;7.90;67.10;;;;;;4931717;28;88918;-79
2020/12/15 10:40:19;;;;;;;23.63;16.63;;;7.80;67.10;;;;;;4930235;28;90978;-77
2020/12/15 10:42:45;;;;;;;30.10;19.30;;;7.60;67.70;;;;;;4932456;28;87571;-79
2020/12/15 10:45:11;;;;;;;25.83;16.50;;;7.50;68.10;;;;;;4927616;28;87685;-78
2020/12/15 10:47:36;;;;;;;22.63;17.03;;;7.50;68.80;;;;;;4925778;28;89185;-77
2020/12/15 10:50:03;;;;;;;25.60;16.13;;;7.40;69.00;;;;;;4930809;28;87468;-78
2020/12/15 10:52:29;;;;;;;23.03;16.07;;;7.30;69.00;;;;;;4944588;28;87587;-79
2020/12/15 10:54:54;;;;;;;25.57;16.30;;;7.30;69.30;;;;;;4927484;28;87068;-78
2020/12/15 10:57:20;;;;;;;24.40;17.40;;;7.20;69.70;;;;;;4928730;28;91104;-78
2020/12/15 10:59:47;;;;;;;26.90;19.00;;;7.20;70.20;;;;;;4933632;28;87983;-78
2020/12/15 11:02:13;;;;;;;35.90;22.97;;;7.10;70.40;;;;;;4930266;28;87246;-78
2020/12/15 11:04:39;;;;;;;37.10;23.50;;;7.10;70.90;;;;;;4946068;28;86706;-77
2020/12/15 11:07:05;;;;;;;38.03;20.53;;;7.10;71.10;;;;;;4934052;28;89861;-77
2020/12/15 11:09:31;;;;;;;25.70;17.00;;;7.00;71.70;;;;;;4933330;28;88594;-78
2020/12/15 11:11:56;;;;;;;43.23;22.90;;;6.90;72.20;;;;;;4926315;28;88364;-79
2020/12/15 11:14:22;;;;;;;31.77;19.40;;;7.00;72.30;;;;;;4941002;28;87684;-78
2020/12/15 11:16:48;;;;;;;26.50;17.70;;;7.00;72.20;;;;;;4934170;28;91322;-78
2020/12/15 11:19:14;;;;;;;46.93;24.83;;;7.00;72.20;;;;;;4928556;28;91368;-78
2020/12/15 11:21:40;;;;;;;44.80;23.70;;;7.10;72.10;;;;;;4937009;28;87621;-79
2020/12/15 11:24:06;;;;;;;55.93;28.43;;;7.20;71.40;;;;;;4929943;28;88228;-78
2020/12/15 11:26:32;;;;;;;52.70;25.93;;;7.20;71.20;;;;;;4930689;28;88407;-78
2020/12/15 11:28:58;;;;;;;67.17;34.50;;;7.30;71.00;;;;;;4936870;28;91246;-81
2020/12/15 11:31:23;;;;;;;32.07;20.23;;;7.30;71.00;;;;;;4941272;28;87372;-80
2020/12/15 11:33:49;;;;;;;29.77;18.90;;;7.30;71.20;;;;;;4932750;28;88287;-80
2020/12/15 11:36:15;;;;;;;31.77;19.40;;;7.20;71.40;;;;;;4932674;28;91402;-80
2020/12/15 11:38:44;;;;;;;42.50;22.73;;;7.20;71.80;;;;;;4939097;28;89506;-80
2020/12/15 11:41:14;;;;;;;30.40;19.73;;;7.30;71.90;;;;;;4927263;28;87813;-80
2020/12/15 11:43:40;;;;;;;31.80;20.43;;;7.30;71.70;;;;;;4926298;28;87745;-80
2020/12/15 11:46:06;;;;;;;31.90;19.87;;;7.50;71.10;;;;;;4938376;28;88302;-80
2020/12/15 11:48:32;;;;;;;28.43;19.17;;;7.50;71.00;;;;;;4940402;28;91128;-80
2020/12/15 11:50:58;;;;;;;31.87;19.80;;;7.40;71.70;;;;;;4934422;28;87527;-80
2020/12/15 11:53:24;;;;;;;35.07;23.80;;;7.50;72.00;;;;;;4943746;28;86922;-81
2020/12/15 11:55:50;;;;;;;37.93;25.70;;;7.50;71.60;;;;;;4960726;28;89670;-82
2020/12/15 11:58:17;;;;;;;29.63;20.83;;;7.70;71.40;;;;;;4935728;28;87088;-81
2020/12/15 12:00:42;;;;;;;30.20;21.17;;;7.70;70.90;;;;;;4944320;28;88438;-81
2020/12/15 12:03:08;;;;;;;40.77;23.23;;;7.80;71.00;;;;;;4942062;28;87282;-81
2020/12/15 12:05:34;;;;;;;43.53;25.67;;;7.80;70.60;;;;;;4944871;28;90655;-81
2020/12/15 12:08:00;;;;;;;33.67;21.53;;;7.80;70.80;;;;;;4933785;28;87015;-81
2020/12/15 12:10:26;;;;;;;34.57;20.80;;;7.90;70.60;;;;;;4941270;28;86918;-81
2020/12/15 12:12:52;;;;;;;32.77;21.07;;;7.80;71.10;;;;;;4944230;28;87549;-81
2020/12/15 12:15:18;;;;;;;30.43;19.40;;;7.80;71.20;;;;;;4945325;28;88229;-81
2020/12/15 12:17:44;;;;;;;33.73;20.63;;;7.70;71.30;;;;;;4945926;28;89299;-79
2020/12/15 12:20:10;;;;;;;41.47;25.93;;;7.70;71.50;;;;;;4921835;28;87022;-79
2020/12/15 12:22:35;;;;;;;37.00;23.67;;;7.70;71.30;;;;;;4934754;28;87357;-79
2020/12/15 12:25:01;;;;;;;30.77;19.47;;;7.70;71.50;;;;;;4934231;28;92087;-79
2020/12/15 12:27:27;;;;;;;34.73;22.87;;;7.60;71.80;;;;;;4910236;28;92075;-79
2020/12/15 12:29:53;;;;;;;35.20;22.90;;;7.60;72.10;;;;;;4933123;28;87268;-79
2020/12/15 12:32:19;;;;;;;29.90;18.90;;;7.60;72.30;;;;;;4928412;28;87455;-79
2020/12/15 12:34:46;;;;;;;26.73;17.20;;;7.60;72.60;;;;;;4946119;28;91830;-79
2020/12/15 12:37:11;;;;;;;27.67;17.97;;;7.60;73.00;;;;;;4944214;28;91408;-79
2020/12/15 12:39:37;;;;;;;25.33;17.50;;;7.60;73.20;;;;;;4933520;28;87510;-79
2020/12/15 12:42:07;;;;;;;25.03;17.37;;;7.70;73.10;;;;;;4944919;28;87616;-80
2020/12/15 12:44:33;;;;;;;25.83;16.53;;;7.70;73.00;;;;;;4917935;28;89720;-79
2020/12/15 12:46:59;;;;;;;28.33;17.33;;;7.70;73.00;;;;;;4936442;28;91213;-79